sensor_id;sensor_type;location;lat;lon;timestamp;P1;durP1;ratioP1;P2;durP2;ratioP2
12445;SDS011;6287;50.984;7.022;2023-07-30T00:00:10;3.80;;;1.80;;
12445;SDS011;6287;50.984;7.022;2023-07-30T00:02:35;1.50;;;1.40;;
12445;SDS011;6287;50.984;7.022;2023-07-30T00:05:01;3.27;;;1.73;;
12445;SDS011;6287;50.984;7.022;2023-07-30T00:07:29;1.90;;;1.70;;
12445;SDS011;6287;50.984;7.022;2023-07-30T00:09:54;2.83;;;2.37;;
12445;SDS011;6287;50.984;7.022;2023-07-30T00:12:20;1.73;;;1.63;;
12445;SDS011;6287;50.984;7.022;2023-07-30T00:14:48;2.70;;;2.17;;
12445;SDS011;6287;50.984;7.022;2023-07-30T00:17:13;2.03;;;1.93;;
12445;SDS011;6287;50.984;7.022;2023-07-30T00:19:39;2.80;;;1.70;;
12445;SDS011;6287;50.984;7.022;2023-07-30T00:22:07;2.30;;;2.07;;
12445;SDS011;6287;50.984;7.022;2023-07-30T00:24:34;3.10;;;2.30;;
12445;SDS011;6287;50.984;7.022;2023-07-30T00:27:00;2.10;;;2.00;;
12445;SDS011;6287;50.984;7.022;2023-07-30T00:29:26;2.10;;;2.00;;
12445;SDS011;6287;50.984;7.022;2023-07-30T00:31:52;2.27;;;2.07;;
12445;SDS011;6287;50.984;7.022;2023-07-30T00:34:19;3.53;;;2.30;;
12445;SDS011;6287;50.984;7.022;2023-07-30T00:36:45;2.80;;;1.90;;
12445;SDS011;6287;50.984;7.022;2023-07-30T00:39:13;3.07;;;1.90;;
12445;SDS011;6287;50.984;7.022;2023-07-30T00:41:38;2.30;;;2.10;;
12445;SDS011;6287;50.984;7.022;2023-07-30T00:44:06;2.23;;;1.73;;
12445;SDS011;6287;50.984;7.022;2023-07-30T00:46:32;2.10;;;1.90;;
12445;SDS011;6287;50.984;7.022;2023-07-30T00:48:58;2.53;;;1.80;;
12445;SDS011;6287;50.984;7.022;2023-07-30T00:51:24;2.17;;;2.07;;
12445;SDS011;6287;50.984;7.022;2023-07-30T00:53:57;1.90;;;1.80;;
12445;SDS011;6287;50.984;7.022;2023-07-30T00:56:22;2.00;;;1.90;;
12445;SDS011;6287;50.984;7.022;2023-07-30T00:58:51;1.90;;;1.70;;
12445;SDS011;6287;50.984;7.022;2023-07-30T01:01:18;2.67;;;2.10;;
12445;SDS011;6287;50.984;7.022;2023-07-30T01:03:44;2.70;;;2.10;;
12445;SDS011;6287;50.984;7.022;2023-07-30T01:06:10;1.93;;;1.83;;
12445;SDS011;6287;50.984;7.022;2023-07-30T01:08:37;2.87;;;1.97;;
12445;SDS011;6287;50.984;7.022;2023-07-30T01:11:03;2.10;;;1.60;;
12445;SDS011;6287;50.984;7.022;2023-07-30T01:13:30;2.27;;;2.07;;
12445;SDS011;6287;50.984;7.022;2023-07-30T01:15:58;3.97;;;2.27;;
12445;SDS011;6287;50.984;7.022;2023-07-30T01:18:24;2.33;;;2.00;;
12445;SDS011;6287;50.984;7.022;2023-07-30T01:20:53;2.37;;;2.17;;
12445;SDS011;6287;50.984;7.022;2023-07-30T01:23:18;2.80;;;1.90;;
12445;SDS011;6287;50.984;7.022;2023-07-30T01:25:44;1.90;;;1.80;;
12445;SDS011;6287;50.984;7.022;2023-07-30T01:28:15;2.00;;;1.80;;
12445;SDS011;6287;50.984;7.022;2023-07-30T01:30:45;2.17;;;2.03;;
12445;SDS011;6287;50.984;7.022;2023-07-30T01:33:14;3.20;;;2.10;;
12445;SDS011;6287;50.984;7.022;2023-07-30T01:35:40;2.20;;;1.90;;
12445;SDS011;6287;50.984;7.022;2023-07-30T01:38:08;2.10;;;2.00;;
12445;SDS011;6287;50.984;7.022;2023-07-30T01:40:37;3.30;;;2.20;;
12445;SDS011;6287;50.984;7.022;2023-07-30T01:43:02;2.63;;;2.27;;
12445;SDS011;6287;50.984;7.022;2023-07-30T01:45:34;2.10;;;2.00;;
12445;SDS011;6287;50.984;7.022;2023-07-30T01:48:00;2.47;;;2.27;;
12445;SDS011;6287;50.984;7.022;2023-07-30T01:50:27;2.70;;;2.20;;
12445;SDS011;6287;50.984;7.022;2023-07-30T01:52:55;2.40;;;2.20;;
12445;SDS011;6287;50.984;7.022;2023-07-30T01:55:21;4.43;;;2.57;;
12445;SDS011;6287;50.984;7.022;2023-07-30T01:57:49;2.13;;;2.00;;
12445;SDS011;6287;50.984;7.022;2023-07-30T02:00:15;2.43;;;2.23;;
12445;SDS011;6287;50.984;7.022;2023-07-30T02:02:40;3.50;;;2.30;;
12445;SDS011;6287;50.984;7.022;2023-07-30T02:05:06;2.57;;;2.37;;
12445;SDS011;6287;50.984;7.022;2023-07-30T02:07:32;2.07;;;1.90;;
12445;SDS011;6287;50.984;7.022;2023-07-30T02:09:58;2.60;;;2.27;;
12445;SDS011;6287;50.984;7.022;2023-07-30T02:12:23;3.10;;;1.70;;
12445;SDS011;6287;50.984;7.022;2023-07-30T02:14:49;2.30;;;2.07;;
12445;SDS011;6287;50.984;7.022;2023-07-30T02:17:17;2.77;;;2.20;;
12445;SDS011;6287;50.984;7.022;2023-07-30T02:19:43;2.50;;;1.87;;
12445;SDS011;6287;50.984;7.022;2023-07-30T02:22:12;3.43;;;1.70;;
12445;SDS011;6287;50.984;7.022;2023-07-30T02:24:37;3.03;;;2.33;;
12445;SDS011;6287;50.984;7.022;2023-07-30T02:27:03;2.73;;;1.87;;
12445;SDS011;6287;50.984;7.022;2023-07-30T02:29:31;2.47;;;1.80;;
12445;SDS011;6287;50.984;7.022;2023-07-30T02:31:57;4.60;;;1.97;;
12445;SDS011;6287;50.984;7.022;2023-07-30T02:34:24;2.50;;;1.70;;
12445;SDS011;6287;50.984;7.022;2023-07-30T02:36:50;3.72;;;2.53;;
12445;SDS011;6287;50.984;7.022;2023-07-30T02:39:18;3.93;;;2.03;;
12445;SDS011;6287;50.984;7.022;2023-07-30T02:41:46;2.57;;;1.93;;
12445;SDS011;6287;50.984;7.022;2023-07-30T02:44:17;5.13;;;1.90;;
12445;SDS011;6287;50.984;7.022;2023-07-30T02:46:47;2.27;;;1.80;;
12445;SDS011;6287;50.984;7.022;2023-07-30T02:49:13;3.23;;;1.73;;
12445;SDS011;6287;50.984;7.022;2023-07-30T02:51:41;6.47;;;3.13;;
12445;SDS011;6287;50.984;7.022;2023-07-30T02:54:13;2.70;;;1.90;;
12445;SDS011;6287;50.984;7.022;2023-07-30T02:56:39;3.50;;;2.10;;
12445;SDS011;6287;50.984;7.022;2023-07-30T02:59:05;5.80;;;1.90;;
12445;SDS011;6287;50.984;7.022;2023-07-30T03:01:34;3.90;;;1.97;;
12445;SDS011;6287;50.984;7.022;2023-07-30T03:04:00;3.90;;;1.70;;
12445;SDS011;6287;50.984;7.022;2023-07-30T03:06:25;2.70;;;1.90;;
12445;SDS011;6287;50.984;7.022;2023-07-30T03:08:51;3.20;;;1.70;;
12445;SDS011;6287;50.984;7.022;2023-07-30T03:11:19;4.50;;;2.00;;
12445;SDS011;6287;50.984;7.022;2023-07-30T03:13:47;3.63;;;2.00;;
12445;SDS011;6287;50.984;7.022;2023-07-30T03:16:15;1.80;;;1.70;;
12445;SDS011;6287;50.984;7.022;2023-07-30T03:18:41;3.27;;;2.23;;
12445;SDS011;6287;50.984;7.022;2023-07-30T03:21:07;3.60;;;1.67;;
12445;SDS011;6287;50.984;7.022;2023-07-30T03:23:33;2.93;;;1.87;;
12445;SDS011;6287;50.984;7.022;2023-07-30T03:25:58;4.10;;;1.83;;
12445;SDS011;6287;50.984;7.022;2023-07-30T03:28:26;2.17;;;1.80;;
12445;SDS011;6287;50.984;7.022;2023-07-30T03:30:52;4.13;;;1.80;;
12445;SDS011;6287;50.984;7.022;2023-07-30T03:33:18;2.33;;;1.90;;
12445;SDS011;6287;50.984;7.022;2023-07-30T03:35:43;4.90;;;2.10;;
12445;SDS011;6287;50.984;7.022;2023-07-30T03:38:11;1.97;;;1.43;;
12445;SDS011;6287;50.984;7.022;2023-07-30T03:40:37;2.63;;;1.97;;
12445;SDS011;6287;50.984;7.022;2023-07-30T03:43:07;3.40;;;1.80;;
12445;SDS011;6287;50.984;7.022;2023-07-30T03:45:35;5.70;;;1.70;;
12445;SDS011;6287;50.984;7.022;2023-07-30T03:48:03;2.93;;;1.87;;
12445;SDS011;6287;50.984;7.022;2023-07-30T03:50:34;3.50;;;1.73;;
12445;SDS011;6287;50.984;7.022;2023-07-30T03:53:00;5.00;;;1.80;;
12445;SDS011;6287;50.984;7.022;2023-07-30T03:55:28;1.83;;;1.63;;
12445;SDS011;6287;50.984;7.022;2023-07-30T03:57:56;3.93;;;1.70;;
12445;SDS011;6287;50.984;7.022;2023-07-30T04:00:23;4.77;;;1.93;;
12445;SDS011;6287;50.984;7.022;2023-07-30T04:02:49;4.17;;;1.80;;
12445;SDS011;6287;50.984;7.022;2023-07-30T04:05:17;3.07;;;1.60;;
12445;SDS011;6287;50.984;7.022;2023-07-30T04:07:43;2.77;;;1.77;;
12445;SDS011;6287;50.984;7.022;2023-07-30T04:10:08;2.33;;;1.47;;
12445;SDS011;6287;50.984;7.022;2023-07-30T04:12:34;1.63;;;1.40;;
12445;SDS011;6287;50.984;7.022;2023-07-30T04:15:02;2.77;;;1.63;;
12445;SDS011;6287;50.984;7.022;2023-07-30T04:17:30;1.70;;;1.43;;
12445;SDS011;6287;50.984;7.022;2023-07-30T04:19:56;3.50;;;1.97;;
12445;SDS011;6287;50.984;7.022;2023-07-30T04:22:24;2.13;;;1.33;;
12445;SDS011;6287;50.984;7.022;2023-07-30T04:24:50;4.23;;;1.53;;
12445;SDS011;6287;50.984;7.022;2023-07-30T04:27:16;5.40;;;1.70;;
12445;SDS011;6287;50.984;7.022;2023-07-30T04:29:41;1.90;;;1.63;;
12445;SDS011;6287;50.984;7.022;2023-07-30T04:32:09;3.07;;;1.87;;
12445;SDS011;6287;50.984;7.022;2023-07-30T04:34:35;3.10;;;1.60;;
12445;SDS011;6287;50.984;7.022;2023-07-30T04:37:00;2.90;;;1.60;;
12445;SDS011;6287;50.984;7.022;2023-07-30T04:39:30;3.70;;;1.60;;
12445;SDS011;6287;50.984;7.022;2023-07-30T04:41:57;6.97;;;1.87;;
12445;SDS011;6287;50.984;7.022;2023-07-30T04:44:27;3.57;;;1.83;;
12445;SDS011;6287;50.984;7.022;2023-07-30T04:46:58;3.57;;;1.87;;
12445;SDS011;6287;50.984;7.022;2023-07-30T04:49:23;3.40;;;1.97;;
12445;SDS011;6287;50.984;7.022;2023-07-30T04:51:49;4.10;;;1.90;;
12445;SDS011;6287;50.984;7.022;2023-07-30T04:54:14;3.90;;;1.60;;
12445;SDS011;6287;50.984;7.022;2023-07-30T04:56:42;5.50;;;2.00;;
12445;SDS011;6287;50.984;7.022;2023-07-30T04:59:08;5.63;;;2.20;;
12445;SDS011;6287;50.984;7.022;2023-07-30T05:01:36;2.87;;;1.70;;
12445;SDS011;6287;50.984;7.022;2023-07-30T05:04:02;5.20;;;1.83;;
12445;SDS011;6287;50.984;7.022;2023-07-30T05:06:27;4.60;;;2.00;;
12445;SDS011;6287;50.984;7.022;2023-07-30T05:08:55;4.87;;;1.60;;
12445;SDS011;6287;50.984;7.022;2023-07-30T05:11:22;3.30;;;2.10;;
12445;SDS011;6287;50.984;7.022;2023-07-30T05:13:48;6.33;;;1.97;;
12445;SDS011;6287;50.984;7.022;2023-07-30T05:16:14;3.87;;;1.87;;
12445;SDS011;6287;50.984;7.022;2023-07-30T05:18:39;4.87;;;1.70;;
12445;SDS011;6287;50.984;7.022;2023-07-30T05:21:05;2.47;;;1.60;;
12445;SDS011;6287;50.984;7.022;2023-07-30T05:23:30;3.23;;;1.77;;
12445;SDS011;6287;50.984;7.022;2023-07-30T05:25:56;3.37;;;1.23;;
12445;SDS011;6287;50.984;7.022;2023-07-30T05:28:22;4.17;;;1.50;;
12445;SDS011;6287;50.984;7.022;2023-07-30T05:30:47;3.00;;;1.33;;
12445;SDS011;6287;50.984;7.022;2023-07-30T05:33:13;2.13;;;1.17;;
12445;SDS011;6287;50.984;7.022;2023-07-30T05:35:38;2.63;;;1.43;;
12445;SDS011;6287;50.984;7.022;2023-07-30T05:38:04;5.47;;;1.23;;
12445;SDS011;6287;50.984;7.022;2023-07-30T05:40:30;2.33;;;1.17;;
12445;SDS011;6287;50.984;7.022;2023-07-30T05:42:58;1.93;;;1.37;;
12445;SDS011;6287;50.984;7.022;2023-07-30T05:45:29;4.33;;;1.33;;
12445;SDS011;6287;50.984;7.022;2023-07-30T05:48:00;3.77;;;1.20;;
12445;SDS011;6287;50.984;7.022;2023-07-30T05:50:26;4.93;;;1.17;;
12445;SDS011;6287;50.984;7.022;2023-07-30T05:52:52;3.27;;;1.30;;
12445;SDS011;6287;50.984;7.022;2023-07-30T05:55:22;2.27;;;1.30;;
12445;SDS011;6287;50.984;7.022;2023-07-30T05:57:51;4.80;;;1.30;;
12445;SDS011;6287;50.984;7.022;2023-07-30T06:00:22;1.60;;;1.23;;
12445;SDS011;6287;50.984;7.022;2023-07-30T06:02:50;2.87;;;1.20;;
12445;SDS011;6287;50.984;7.022;2023-07-30T06:05:16;5.30;;;1.40;;
12445;SDS011;6287;50.984;7.022;2023-07-30T06:07:41;1.00;;;0.87;;
12445;SDS011;6287;50.984;7.022;2023-07-30T06:10:07;3.07;;;1.30;;
12445;SDS011;6287;50.984;7.022;2023-07-30T06:12:35;3.07;;;1.20;;
12445;SDS011;6287;50.984;7.022;2023-07-30T06:15:01;2.27;;;1.30;;
12445;SDS011;6287;50.984;7.022;2023-07-30T06:17:28;2.87;;;0.93;;
12445;SDS011;6287;50.984;7.022;2023-07-30T06:19:53;2.77;;;1.20;;
12445;SDS011;6287;50.984;7.022;2023-07-30T06:22:19;4.00;;;1.30;;
12445;SDS011;6287;50.984;7.022;2023-07-30T06:24:47;2.70;;;1.07;;
12445;SDS011;6287;50.984;7.022;2023-07-30T06:27:14;3.27;;;1.20;;
12445;SDS011;6287;50.984;7.022;2023-07-30T06:29:40;3.30;;;1.30;;
12445;SDS011;6287;50.984;7.022;2023-07-30T06:32:08;2.93;;;0.97;;
12445;SDS011;6287;50.984;7.022;2023-07-30T06:34:35;2.27;;;1.10;;
12445;SDS011;6287;50.984;7.022;2023-07-30T06:37:03;2.83;;;1.10;;
12445;SDS011;6287;50.984;7.022;2023-07-30T06:39:34;3.27;;;1.07;;
12445;SDS011;6287;50.984;7.022;2023-07-30T06:42:02;3.47;;;1.30;;
12445;SDS011;6287;50.984;7.022;2023-07-30T06:44:33;3.90;;;1.00;;
12445;SDS011;6287;50.984;7.022;2023-07-30T06:47:03;1.77;;;1.20;;
12445;SDS011;6287;50.984;7.022;2023-07-30T06:49:29;4.20;;;1.73;;
12445;SDS011;6287;50.984;7.022;2023-07-30T06:51:55;2.73;;;1.00;;
12445;SDS011;6287;50.984;7.022;2023-07-30T06:54:21;2.33;;;1.20;;
12445;SDS011;6287;50.984;7.022;2023-07-30T06:56:47;3.60;;;1.40;;
12445;SDS011;6287;50.984;7.022;2023-07-30T06:59:14;1.90;;;1.10;;
12445;SDS011;6287;50.984;7.022;2023-07-30T07:01:40;3.63;;;1.07;;
12445;SDS011;6287;50.984;7.022;2023-07-30T07:04:08;3.23;;;1.20;;
12445;SDS011;6287;50.984;7.022;2023-07-30T07:06:34;2.47;;;1.37;;
12445;SDS011;6287;50.984;7.022;2023-07-30T07:09:02;0.97;;;0.93;;
12445;SDS011;6287;50.984;7.022;2023-07-30T07:11:28;3.03;;;1.07;;
12445;SDS011;6287;50.984;7.022;2023-07-30T07:13:53;3.63;;;0.90;;
12445;SDS011;6287;50.984;7.022;2023-07-30T07:16:21;2.70;;;1.00;;
12445;SDS011;6287;50.984;7.022;2023-07-30T07:18:49;1.42;;;1.00;;
12445;SDS011;6287;50.984;7.022;2023-07-30T07:21:17;2.57;;;1.13;;
12445;SDS011;6287;50.984;7.022;2023-07-30T07:23:45;2.30;;;1.27;;
12445;SDS011;6287;50.984;7.022;2023-07-30T07:26:13;1.80;;;0.90;;
12445;SDS011;6287;50.984;7.022;2023-07-30T07:28:41;2.57;;;1.10;;
12445;SDS011;6287;50.984;7.022;2023-07-30T07:31:09;1.23;;;1.00;;
12445;SDS011;6287;50.984;7.022;2023-07-30T07:33:36;2.33;;;1.03;;
12445;SDS011;6287;50.984;7.022;2023-07-30T07:36:08;1.97;;;0.90;;
12445;SDS011;6287;50.984;7.022;2023-07-30T07:38:36;2.80;;;0.80;;
12445;SDS011;6287;50.984;7.022;2023-07-30T07:41:06;1.57;;;1.10;;
12445;SDS011;6287;50.984;7.022;2023-07-30T07:43:32;3.73;;;0.93;;
12445;SDS011;6287;50.984;7.022;2023-07-30T07:46:03;4.17;;;1.30;;
12445;SDS011;6287;50.984;7.022;2023-07-30T07:48:29;3.08;;;1.00;;
12445;SDS011;6287;50.984;7.022;2023-07-30T07:50:56;1.80;;;0.97;;
12445;SDS011;6287;50.984;7.022;2023-07-30T07:53:25;2.80;;;1.20;;
12445;SDS011;6287;50.984;7.022;2023-07-30T07:55:50;5.80;;;1.40;;
12445;SDS011;6287;50.984;7.022;2023-07-30T07:58:16;2.70;;;1.10;;
12445;SDS011;6287;50.984;7.022;2023-07-30T08:00:44;3.47;;;1.10;;
12445;SDS011;6287;50.984;7.022;2023-07-30T08:03:09;3.27;;;1.20;;
12445;SDS011;6287;50.984;7.022;2023-07-30T08:05:35;3.30;;;1.15;;
12445;SDS011;6287;50.984;7.022;2023-07-30T08:08:01;2.38;;;1.10;;
12445;SDS011;6287;50.984;7.022;2023-07-30T08:10:27;4.80;;;1.35;;
12445;SDS011;6287;50.984;7.022;2023-07-30T08:12:55;1.58;;;1.05;;
12445;SDS011;6287;50.984;7.022;2023-07-30T08:15:21;1.77;;;0.90;;
12445;SDS011;6287;50.984;7.022;2023-07-30T08:17:47;3.88;;;1.30;;
12445;SDS011;6287;50.984;7.022;2023-07-30T08:20:12;2.88;;;1.33;;
12445;SDS011;6287;50.984;7.022;2023-07-30T08:22:38;3.65;;;1.30;;
12445;SDS011;6287;50.984;7.022;2023-07-30T08:25:04;2.95;;;1.20;;
12445;SDS011;6287;50.984;7.022;2023-07-30T08:27:30;5.55;;;1.20;;
12445;SDS011;6287;50.984;7.022;2023-07-30T08:29:56;3.50;;;1.60;;
12445;SDS011;6287;50.984;7.022;2023-07-30T08:32:24;3.28;;;1.35;;
12445;SDS011;6287;50.984;7.022;2023-07-30T08:34:49;5.00;;;1.55;;
12445;SDS011;6287;50.984;7.022;2023-07-30T08:37:19;2.65;;;1.48;;
12445;SDS011;6287;50.984;7.022;2023-07-30T08:39:45;4.10;;;1.58;;
12445;SDS011;6287;50.984;7.022;2023-07-30T08:42:13;2.25;;;1.30;;
12445;SDS011;6287;50.984;7.022;2023-07-30T08:44:39;4.80;;;1.85;;
12445;SDS011;6287;50.984;7.022;2023-07-30T08:47:09;3.53;;;1.20;;
12445;SDS011;6287;50.984;7.022;2023-07-30T08:49:37;2.97;;;1.35;;
12445;SDS011;6287;50.984;7.022;2023-07-30T08:52:03;3.90;;;1.30;;
12445;SDS011;6287;50.984;7.022;2023-07-30T08:54:36;2.75;;;1.48;;
12445;SDS011;6287;50.984;7.022;2023-07-30T08:57:03;4.18;;;1.63;;
12445;SDS011;6287;50.984;7.022;2023-07-30T08:59:37;2.70;;;1.15;;
12445;SDS011;6287;50.984;7.022;2023-07-30T09:02:05;3.17;;;1.30;;
12445;SDS011;6287;50.984;7.022;2023-07-30T09:04:45;4.03;;;1.85;;
12445;SDS011;6287;50.984;7.022;2023-07-30T09:07:14;3.08;;;1.60;;
12445;SDS011;6287;50.984;7.022;2023-07-30T09:09:40;3.22;;;1.42;;
12445;SDS011;6287;50.984;7.022;2023-07-30T09:12:16;6.07;;;1.85;;
12445;SDS011;6287;50.984;7.022;2023-07-30T09:14:46;3.47;;;1.70;;
12445;SDS011;6287;50.984;7.022;2023-07-30T09:17:20;6.30;;;1.50;;
12445;SDS011;6287;50.984;7.022;2023-07-30T09:19:46;3.00;;;2.08;;
12445;SDS011;6287;50.984;7.022;2023-07-30T09:22:12;2.95;;;1.17;;
12445;SDS011;6287;50.984;7.022;2023-07-30T09:24:44;4.13;;;1.38;;
12445;SDS011;6287;50.984;7.022;2023-07-30T09:27:10;3.92;;;1.20;;
12445;SDS011;6287;50.984;7.022;2023-07-30T09:29:36;4.10;;;1.10;;
12445;SDS011;6287;50.984;7.022;2023-07-30T09:32:03;3.65;;;1.20;;
12445;SDS011;6287;50.984;7.022;2023-07-30T09:34:32;4.30;;;1.00;;
12445;SDS011;6287;50.984;7.022;2023-07-30T09:37:00;3.17;;;0.93;;
12445;SDS011;6287;50.984;7.022;2023-07-30T09:39:31;3.28;;;1.42;;
12445;SDS011;6287;50.984;7.022;2023-07-30T09:42:00;3.45;;;1.13;;
12445;SDS011;6287;50.984;7.022;2023-07-30T09:44:28;2.60;;;1.30;;
12445;SDS011;6287;50.984;7.022;2023-07-30T09:47:00;3.45;;;1.33;;
12445;SDS011;6287;50.984;7.022;2023-07-30T09:49:31;3.47;;;1.10;;
12445;SDS011;6287;50.984;7.022;2023-07-30T09:51:57;3.50;;;1.45;;
12445;SDS011;6287;50.984;7.022;2023-07-30T09:54:23;1.92;;;1.02;;
12445;SDS011;6287;50.984;7.022;2023-07-30T09:56:51;3.47;;;1.10;;
12445;SDS011;6287;50.984;7.022;2023-07-30T09:59:17;3.22;;;1.13;;
12445;SDS011;6287;50.984;7.022;2023-07-30T10:01:47;3.38;;;1.13;;
12445;SDS011;6287;50.984;7.022;2023-07-30T10:04:19;3.42;;;1.10;;
12445;SDS011;6287;50.984;7.022;2023-07-30T10:06:56;3.60;;;0.88;;
12445;SDS011;6287;50.984;7.022;2023-07-30T10:09:33;4.50;;;1.05;;
12445;SDS011;6287;50.984;7.022;2023-07-30T10:12:10;3.80;;;1.40;;
12445;SDS011;6287;50.984;7.022;2023-07-30T10:14:40;4.70;;;1.08;;
12445;SDS011;6287;50.984;7.022;2023-07-30T10:17:09;3.10;;;1.27;;
12445;SDS011;6287;50.984;7.022;2023-07-30T10:19:37;2.50;;;1.33;;
12445;SDS011;6287;50.984;7.022;2023-07-30T10:24:40;2.42;;;1.73;;
12445;SDS011;6287;50.984;7.022;2023-07-30T10:27:22;3.75;;;1.40;;
12445;SDS011;6287;50.984;7.022;2023-07-30T10:29:50;2.83;;;1.30;;
12445;SDS011;6287;50.984;7.022;2023-07-30T10:32:57;3.45;;;1.20;;
12445;SDS011;6287;50.984;7.022;2023-07-30T10:38:16;3.17;;;1.50;;
12445;SDS011;6287;50.984;7.022;2023-07-30T10:40:59;2.95;;;1.67;;
12445;SDS011;6287;50.984;7.022;2023-07-30T10:43:46;2.17;;;1.27;;
12445;SDS011;6287;50.984;7.022;2023-07-30T10:46:15;2.63;;;1.50;;
12445;SDS011;6287;50.984;7.022;2023-07-30T10:48:43;3.22;;;1.00;;
12445;SDS011;6287;50.984;7.022;2023-07-30T10:51:13;2.72;;;1.20;;
12445;SDS011;6287;50.984;7.022;2023-07-30T10:53:47;2.22;;;0.95;;
12445;SDS011;6287;50.984;7.022;2023-07-30T10:56:16;1.40;;;0.90;;
12445;SDS011;6287;50.984;7.022;2023-07-30T10:58:48;3.20;;;0.98;;
12445;SDS011;6287;50.984;7.022;2023-07-30T11:01:16;1.65;;;0.88;;
12445;SDS011;6287;50.984;7.022;2023-07-30T11:03:47;2.58;;;0.90;;
12445;SDS011;6287;50.984;7.022;2023-07-30T11:06:20;4.07;;;0.88;;
12445;SDS011;6287;50.984;7.022;2023-07-30T11:08:50;2.45;;;0.90;;
12445;SDS011;6287;50.984;7.022;2023-07-30T11:11:18;4.25;;;1.02;;
12445;SDS011;6287;50.984;7.022;2023-07-30T11:13:44;1.38;;;0.80;;
12445;SDS011;6287;50.984;7.022;2023-07-30T11:16:11;2.08;;;0.90;;
12445;SDS011;6287;50.984;7.022;2023-07-30T11:18:42;4.00;;;1.00;;
12445;SDS011;6287;50.984;7.022;2023-07-30T11:21:10;2.33;;;0.90;;
12445;SDS011;6287;50.984;7.022;2023-07-30T11:23:41;2.08;;;0.57;;
12445;SDS011;6287;50.984;7.022;2023-07-30T11:26:15;1.20;;;0.88;;
12445;SDS011;6287;50.984;7.022;2023-07-30T11:28:42;1.67;;;0.60;;
12445;SDS011;6287;50.984;7.022;2023-07-30T11:31:17;3.15;;;0.95;;
12445;SDS011;6287;50.984;7.022;2023-07-30T11:33:47;0.93;;;0.80;;
12445;SDS011;6287;50.984;7.022;2023-07-30T11:36:14;1.15;;;0.80;;
12445;SDS011;6287;50.984;7.022;2023-07-30T11:38:41;2.50;;;0.70;;
12445;SDS011;6287;50.984;7.022;2023-07-30T11:41:10;1.52;;;0.73;;
12445;SDS011;6287;50.984;7.022;2023-07-30T11:43:39;1.75;;;0.85;;
12445;SDS011;6287;50.984;7.022;2023-07-30T11:46:11;1.77;;;0.80;;
12445;SDS011;6287;50.984;7.022;2023-07-30T11:48:38;1.55;;;0.65;;
12445;SDS011;6287;50.984;7.022;2023-07-30T11:51:17;1.63;;;0.90;;
12445;SDS011;6287;50.984;7.022;2023-07-30T11:53:47;1.30;;;0.70;;
12445;SDS011;6287;50.984;7.022;2023-07-30T11:58:43;1.95;;;0.88;;
12445;SDS011;6287;50.984;7.022;2023-07-30T12:01:09;3.50;;;0.80;;
12445;SDS011;6287;50.984;7.022;2023-07-30T12:03:35;3.47;;;0.95;;
12445;SDS011;6287;50.984;7.022;2023-07-30T12:06:06;2.42;;;0.90;;
12445;SDS011;6287;50.984;7.022;2023-07-30T12:08:33;0.90;;;0.60;;
12445;SDS011;6287;50.984;7.022;2023-07-30T12:11:03;2.13;;;0.90;;
12445;SDS011;6287;50.984;7.022;2023-07-30T12:13:31;2.17;;;0.60;;
12445;SDS011;6287;50.984;7.022;2023-07-30T12:15:57;3.60;;;0.80;;
12445;SDS011;6287;50.984;7.022;2023-07-30T12:18:28;1.98;;;0.85;;
12445;SDS011;6287;50.984;7.022;2023-07-30T12:20:56;3.38;;;0.70;;
12445;SDS011;6287;50.984;7.022;2023-07-30T12:23:23;2.33;;;0.93;;
12445;SDS011;6287;50.984;7.022;2023-07-30T12:25:50;1.95;;;0.82;;
12445;SDS011;6287;50.984;7.022;2023-07-30T12:28:16;2.42;;;0.80;;
12445;SDS011;6287;50.984;7.022;2023-07-30T12:30:44;2.88;;;1.00;;
12445;SDS011;6287;50.984;7.022;2023-07-30T12:33:14;1.77;;;0.80;;
12445;SDS011;6287;50.984;7.022;2023-07-30T12:35:43;2.90;;;0.82;;
12445;SDS011;6287;50.984;7.022;2023-07-30T12:38:09;3.08;;;0.70;;
12445;SDS011;6287;50.984;7.022;2023-07-30T12:40:36;1.20;;;0.63;;
12445;SDS011;6287;50.984;7.022;2023-07-30T12:43:04;3.10;;;0.80;;
12445;SDS011;6287;50.984;7.022;2023-07-30T12:45:31;4.82;;;0.75;;
12445;SDS011;6287;50.984;7.022;2023-07-30T12:48:01;3.33;;;0.70;;
12445;SDS011;6287;50.984;7.022;2023-07-30T12:50:27;2.22;;;0.80;;
12445;SDS011;6287;50.984;7.022;2023-07-30T12:52:57;1.50;;;0.60;;
12445;SDS011;6287;50.984;7.022;2023-07-30T12:55:22;2.83;;;0.85;;
12445;SDS011;6287;50.984;7.022;2023-07-30T12:57:50;2.30;;;0.80;;
12445;SDS011;6287;50.984;7.022;2023-07-30T13:00:16;2.78;;;0.70;;
12445;SDS011;6287;50.984;7.022;2023-07-30T13:02:42;1.67;;;0.80;;
12445;SDS011;6287;50.984;7.022;2023-07-30T13:05:08;2.13;;;0.95;;
12445;SDS011;6287;50.984;7.022;2023-07-30T13:07:34;2.28;;;1.05;;
12445;SDS011;6287;50.984;7.022;2023-07-30T13:10:03;2.75;;;0.98;;
12445;SDS011;6287;50.984;7.022;2023-07-30T13:12:35;1.75;;;0.70;;
12445;SDS011;6287;50.984;7.022;2023-07-30T13:15:01;2.70;;;0.90;;
12445;SDS011;6287;50.984;7.022;2023-07-30T13:17:28;3.45;;;0.90;;
12445;SDS011;6287;50.984;7.022;2023-07-30T13:19:53;5.32;;;0.90;;
12445;SDS011;6287;50.984;7.022;2023-07-30T13:22:19;3.95;;;1.00;;
12445;SDS011;6287;50.984;7.022;2023-07-30T13:24:47;2.45;;;0.75;;
12445;SDS011;6287;50.984;7.022;2023-07-30T13:27:12;1.92;;;0.80;;
12445;SDS011;6287;50.984;7.022;2023-07-30T13:29:40;3.72;;;1.00;;
12445;SDS011;6287;50.984;7.022;2023-07-30T13:32:06;1.85;;;0.93;;
12445;SDS011;6287;50.984;7.022;2023-07-30T13:34:31;3.67;;;0.80;;
12445;SDS011;6287;50.984;7.022;2023-07-30T13:36:57;3.38;;;1.00;;
12445;SDS011;6287;50.984;7.022;2023-07-30T13:39:25;1.67;;;0.90;;
12445;SDS011;6287;50.984;7.022;2023-07-30T13:41:55;2.17;;;0.90;;
12445;SDS011;6287;50.984;7.022;2023-07-30T13:44:25;3.17;;;0.90;;
12445;SDS011;6287;50.984;7.022;2023-07-30T13:46:51;1.48;;;0.70;;
12445;SDS011;6287;50.984;7.022;2023-07-30T13:49:19;2.78;;;1.00;;
12445;SDS011;6287;50.984;7.022;2023-07-30T13:51:46;2.38;;;0.90;;
12445;SDS011;6287;50.984;7.022;2023-07-30T13:54:14;2.60;;;0.85;;
12445;SDS011;6287;50.984;7.022;2023-07-30T13:56:42;1.90;;;0.80;;
12445;SDS011;6287;50.984;7.022;2023-07-30T13:59:08;2.28;;;0.85;;
12445;SDS011;6287;50.984;7.022;2023-07-30T14:01:33;2.78;;;0.75;;
12445;SDS011;6287;50.984;7.022;2023-07-30T14:04:01;2.55;;;0.80;;
12445;SDS011;6287;50.984;7.022;2023-07-30T14:06:27;2.38;;;0.95;;
12445;SDS011;6287;50.984;7.022;2023-07-30T14:08:53;1.45;;;0.88;;
12445;SDS011;6287;50.984;7.022;2023-07-30T14:11:21;2.95;;;0.80;;
12445;SDS011;6287;50.984;7.022;2023-07-30T14:13:50;2.15;;;0.82;;
12445;SDS011;6287;50.984;7.022;2023-07-30T14:16:20;2.42;;;1.00;;
12445;SDS011;6287;50.984;7.022;2023-07-30T14:18:45;2.97;;;0.82;;
12445;SDS011;6287;50.984;7.022;2023-07-30T14:21:13;2.25;;;1.10;;
12445;SDS011;6287;50.984;7.022;2023-07-30T14:23:39;2.88;;;0.80;;
12445;SDS011;6287;50.984;7.022;2023-07-30T14:26:04;1.63;;;1.02;;
12445;SDS011;6287;50.984;7.022;2023-07-30T14:28:30;2.40;;;1.02;;
12445;SDS011;6287;50.984;7.022;2023-07-30T14:30:59;2.17;;;1.02;;
12445;SDS011;6287;50.984;7.022;2023-07-30T14:33:24;2.05;;;0.90;;
12445;SDS011;6287;50.984;7.022;2023-07-30T14:35:52;1.60;;;0.90;;
12445;SDS011;6287;50.984;7.022;2023-07-30T14:38:20;1.10;;;0.98;;
12445;SDS011;6287;50.984;7.022;2023-07-30T14:40:48;1.85;;;0.90;;
12445;SDS011;6287;50.984;7.022;2023-07-30T14:43:16;2.67;;;0.88;;
12445;SDS011;6287;50.984;7.022;2023-07-30T14:45:44;2.53;;;1.05;;
12445;SDS011;6287;50.984;7.022;2023-07-30T14:48:09;2.38;;;0.60;;
12445;SDS011;6287;50.984;7.022;2023-07-30T14:50:35;2.22;;;0.98;;
12445;SDS011;6287;50.984;7.022;2023-07-30T14:53:01;3.70;;;0.80;;
12445;SDS011;6287;50.984;7.022;2023-07-30T14:55:28;0.93;;;0.70;;
12445;SDS011;6287;50.984;7.022;2023-07-30T14:57:54;1.70;;;0.70;;
12445;SDS011;6287;50.984;7.022;2023-07-30T15:00:22;1.92;;;1.05;;
12445;SDS011;6287;50.984;7.022;2023-07-30T15:02:48;1.88;;;0.70;;
12445;SDS011;6287;50.984;7.022;2023-07-30T15:05:18;1.55;;;0.80;;
12445;SDS011;6287;50.984;7.022;2023-07-30T15:07:46;2.28;;;0.60;;
12445;SDS011;6287;50.984;7.022;2023-07-30T15:10:12;3.13;;;1.05;;